sensor_id;sensor_type;location;lat;lon;timestamp;temperature;humidity
21481;DHT22;10902;48.158;8.634;2023-08-06T00:01:37;12.60;99.90
21481;DHT22;10902;48.158;8.634;2023-08-06T00:04:23;12.60;99.90
21481;DHT22;10902;48.158;8.634;2023-08-06T00:07:09;12.50;99.90
21481;DHT22;10902;48.158;8.634;2023-08-06T00:09:54;12.50;99.90
21481;DHT22;10902;48.158;8.634;2023-08-06T00:12:40;12.50;99.90
21481;DHT22;10902;48.158;8.634;2023-08-06T00:15:25;12.40;99.90
21481;DHT22;10902;48.158;8.634;2023-08-06T00:18:11;12.40;99.90
21481;DHT22;10902;48.158;8.634;2023-08-06T00:20:57;12.40;99.90
21481;DHT22;10902;48.158;8.634;2023-08-06T00:23:42;12.40;99.90
21481;DHT22;10902;48.158;8.634;2023-08-06T00:26:28;12.40;99.90
21481;DHT22;10902;48.158;8.634;2023-08-06T00:29:13;12.40;99.90
21481;DHT22;10902;48.158;8.634;2023-08-06T00:31:59;12.50;99.90
21481;DHT22;10902;48.158;8.634;2023-08-06T00:34:45;12.50;99.90
21481;DHT22;10902;48.158;8.634;2023-08-06T00:37:30;12.50;99.90
21481;DHT22;10902;48.158;8.634;2023-08-06T00:40:16;12.60;99.90
21481;DHT22;10902;48.158;8.634;2023-08-06T00:43:01;12.60;99.90
21481;DHT22;10902;48.158;8.634;2023-08-06T00:45:47;12.50;99.90
21481;DHT22;10902;48.158;8.634;2023-08-06T00:48:33;12.30;99.90
21481;DHT22;10902;48.158;8.634;2023-08-06T00:51:19;12.20;99.90
21481;DHT22;10902;48.158;8.634;2023-08-06T00:54:05;12.10;99.90
21481;DHT22;10902;48.158;8.634;2023-08-06T00:56:51;12.00;99.90
21481;DHT22;10902;48.158;8.634;2023-08-06T00:59:37;12.10;99.90
21481;DHT22;10902;48.158;8.634;2023-08-06T01:02:22;12.00;99.90
21481;DHT22;10902;48.158;8.634;2023-08-06T01:05:08;11.90;99.90
21481;DHT22;10902;48.158;8.634;2023-08-06T01:11:32;11.80;99.90
21481;DHT22;10902;48.158;8.634;2023-08-06T01:17:12;11.80;99.90
21481;DHT22;10902;48.158;8.634;2023-08-06T01:19:58;11.90;99.90
21481;DHT22;10902;48.158;8.634;2023-08-06T01:22:44;11.90;99.90
21481;DHT22;10902;48.158;8.634;2023-08-06T01:25:49;11.90;99.90
21481;DHT22;10902;48.158;8.634;2023-08-06T01:31:31;11.80;99.90
21481;DHT22;10902;48.158;8.634;2023-08-06T01:34:35;11.80;99.90
21481;DHT22;10902;48.158;8.634;2023-08-06T01:37:22;11.80;99.90
21481;DHT22;10902;48.158;8.634;2023-08-06T01:40:12;11.80;99.90
21481;DHT22;10902;48.158;8.634;2023-08-06T01:42:58;11.90;99.90
21481;DHT22;10902;48.158;8.634;2023-08-06T01:45:44;11.90;99.90
21481;DHT22;10902;48.158;8.634;2023-08-06T01:48:29;11.90;99.90
21481;DHT22;10902;48.158;8.634;2023-08-06T01:51:15;11.90;99.90
21481;DHT22;10902;48.158;8.634;2023-08-06T01:54:00;12.00;99.90
21481;DHT22;10902;48.158;8.634;2023-08-06T01:56:46;11.90;99.90
21481;DHT22;10902;48.158;8.634;2023-08-06T01:59:31;11.80;99.90
21481;DHT22;10902;48.158;8.634;2023-08-06T02:02:17;11.70;99.90
21481;DHT22;10902;48.158;8.634;2023-08-06T02:05:03;11.80;99.90
21481;DHT22;10902;48.158;8.634;2023-08-06T02:07:49;11.70;99.90
21481;DHT22;10902;48.158;8.634;2023-08-06T02:10:35;11.70;99.90
21481;DHT22;10902;48.158;8.634;2023-08-06T02:13:20;11.70;99.90
21481;DHT22;10902;48.158;8.634;2023-08-06T02:16:09;11.80;99.90
21481;DHT22;10902;48.158;8.634;2023-08-06T02:18:54;12.00;99.90
21481;DHT22;10902;48.158;8.634;2023-08-06T02:21:40;12.00;99.90
21481;DHT22;10902;48.158;8.634;2023-08-06T02:24:25;11.90;99.90
21481;DHT22;10902;48.158;8.634;2023-08-06T02:27:11;11.90;99.90
21481;DHT22;10902;48.158;8.634;2023-08-06T02:29:57;11.90;99.90
21481;DHT22;10902;48.158;8.634;2023-08-06T02:32:42;11.90;99.90
21481;DHT22;10902;48.158;8.634;2023-08-06T02:35:28;11.90;99.90
21481;DHT22;10902;48.158;8.634;2023-08-06T02:38:13;11.80;99.90
21481;DHT22;10902;48.158;8.634;2023-08-06T02:41:02;11.80;99.90
21481;DHT22;10902;48.158;8.634;2023-08-06T02:43:49;11.90;99.90
21481;DHT22;10902;48.158;8.634;2023-08-06T02:46:34;11.90;99.90
21481;DHT22;10902;48.158;8.634;2023-08-06T02:49:20;12.00;99.90
21481;DHT22;10902;48.158;8.634;2023-08-06T02:52:06;12.00;99.90
21481;DHT22;10902;48.158;8.634;2023-08-06T02:54:51;12.00;99.90
21481;DHT22;10902;48.158;8.634;2023-08-06T02:57:37;12.00;99.90
21481;DHT22;10902;48.158;8.634;2023-08-06T03:00:23;11.90;99.90
21481;DHT22;10902;48.158;8.634;2023-08-06T03:03:08;11.80;99.90
21481;DHT22;10902;48.158;8.634;2023-08-06T03:05:54;11.70;99.90
21481;DHT22;10902;48.158;8.634;2023-08-06T03:08:40;11.70;99.90
21481;DHT22;10902;48.158;8.634;2023-08-06T03:11:26;11.60;99.90
21481;DHT22;10902;48.158;8.634;2023-08-06T03:14:11;11.60;99.90
21481;DHT22;10902;48.158;8.634;2023-08-06T03:16:57;11.50;99.90
21481;DHT22;10902;48.158;8.634;2023-08-06T03:19:42;11.50;99.90
21481;DHT22;10902;48.158;8.634;2023-08-06T03:22:28;11.40;99.90
21481;DHT22;10902;48.158;8.634;2023-08-06T03:25:15;11.40;99.90
21481;DHT22;10902;48.158;8.634;2023-08-06T03:28:27;11.40;99.90
21481;DHT22;10902;48.158;8.634;2023-08-06T03:31:14;11.30;99.90
21481;DHT22;10902;48.158;8.634;2023-08-06T03:34:17;11.30;99.90
21481;DHT22;10902;48.158;8.634;2023-08-06T03:41:03;11.20;99.90
21481;DHT22;10902;48.158;8.634;2023-08-06T03:43:49;11.30;99.90
21481;DHT22;10902;48.158;8.634;2023-08-06T03:46:34;11.30;99.90
21481;DHT22;10902;48.158;8.634;2023-08-06T03:49:20;11.30;99.90
21481;DHT22;10902;48.158;8.634;2023-08-06T03:52:15;11.30;99.90
21481;DHT22;10902;48.158;8.634;2023-08-06T03:59:32;11.30;99.90
21481;DHT22;10902;48.158;8.634;2023-08-06T04:02:28;11.30;99.90
21481;DHT22;10902;48.158;8.634;2023-08-06T04:05:13;11.30;99.90
21481;DHT22;10902;48.158;8.634;2023-08-06T04:07:59;11.20;99.90
21481;DHT22;10902;48.158;8.634;2023-08-06T04:10:52;11.20;99.90
21481;DHT22;10902;48.158;8.634;2023-08-06T04:13:47;11.30;99.90
21481;DHT22;10902;48.158;8.634;2023-08-06T04:16:53;11.30;99.90
21481;DHT22;10902;48.158;8.634;2023-08-06T05:15:56;11.20;99.90
21481;DHT22;10902;48.158;8.634;2023-08-06T05:18:42;11.20;99.90
21481;DHT22;10902;48.158;8.634;2023-08-06T05:21:28;11.20;99.90
21481;DHT22;10902;48.158;8.634;2023-08-06T05:24:14;11.30;99.90
21481;DHT22;10902;48.158;8.634;2023-08-06T05:26:59;11.20;99.90
21481;DHT22;10902;48.158;8.634;2023-08-06T05:29:45;11.20;99.90
21481;DHT22;10902;48.158;8.634;2023-08-06T05:32:31;11.30;99.90
21481;DHT22;10902;48.158;8.634;2023-08-06T05:35:17;11.30;99.90
21481;DHT22;10902;48.158;8.634;2023-08-06T05:38:02;11.30;99.90
21481;DHT22;10902;48.158;8.634;2023-08-06T05:40:48;11.40;99.90
21481;DHT22;10902;48.158;8.634;2023-08-06T05:43:34;11.50;99.90
21481;DHT22;10902;48.158;8.634;2023-08-06T05:46:19;11.50;99.90
21481;DHT22;10902;48.158;8.634;2023-08-06T05:49:05;11.50;99.90
21481;DHT22;10902;48.158;8.634;2023-08-06T05:51:51;11.60;99.90
21481;DHT22;10902;48.158;8.634;2023-08-06T05:54:38;11.50;99.90
21481;DHT22;10902;48.158;8.634;2023-08-06T05:57:25;11.50;99.90
21481;DHT22;10902;48.158;8.634;2023-08-06T06:00:17;11.40;99.90
21481;DHT22;10902;48.158;8.634;2023-08-06T06:07:06;11.20;99.90
21481;DHT22;10902;48.158;8.634;2023-08-06T06:10:07;11.20;99.90
21481;DHT22;10902;48.158;8.634;2023-08-06T06:13:28;11.20;99.90
21481;DHT22;10902;48.158;8.634;2023-08-06T06:24:27;11.30;99.90
21481;DHT22;10902;48.158;8.634;2023-08-06T06:27:19;11.40;99.90
21481;DHT22;10902;48.158;8.634;2023-08-06T06:30:08;11.50;99.90
21481;DHT22;10902;48.158;8.634;2023-08-06T06:32:54;11.50;99.90
21481;DHT22;10902;48.158;8.634;2023-08-06T06:35:45;11.50;99.90
21481;DHT22;10902;48.158;8.634;2023-08-06T06:38:31;11.50;99.90
21481;DHT22;10902;48.158;8.634;2023-08-06T06:41:16;11.60;99.90
21481;DHT22;10902;48.158;8.634;2023-08-06T06:44:02;11.70;99.90
21481;DHT22;10902;48.158;8.634;2023-08-06T06:46:48;11.80;99.90
21481;DHT22;10902;48.158;8.634;2023-08-06T06:49:33;11.80;99.90
21481;DHT22;10902;48.158;8.634;2023-08-06T06:52:19;11.90;99.90
21481;DHT22;10902;48.158;8.634;2023-08-06T06:55:05;12.00;99.90
21481;DHT22;10902;48.158;8.634;2023-08-06T06:57:50;12.10;99.90
21481;DHT22;10902;48.158;8.634;2023-08-06T07:00:36;12.20;99.90
21481;DHT22;10902;48.158;8.634;2023-08-06T07:03:23;12.20;99.90
21481;DHT22;10902;48.158;8.634;2023-08-06T07:06:08;12.20;99.90
21481;DHT22;10902;48.158;8.634;2023-08-06T07:08:54;12.20;99.90
21481;DHT22;10902;48.158;8.634;2023-08-06T07:11:39;12.30;99.90
21481;DHT22;10902;48.158;8.634;2023-08-06T07:14:28;12.20;99.90
21481;DHT22;10902;48.158;8.634;2023-08-06T07:17:16;12.10;99.90
21481;DHT22;10902;48.158;8.634;2023-08-06T07:20:19;11.70;99.90
21481;DHT22;10902;48.158;8.634;2023-08-06T07:23:10;11.30;99.90
21481;DHT22;10902;48.158;8.634;2023-08-06T07:25:56;11.20;99.90
21481;DHT22;10902;48.158;8.634;2023-08-06T07:28:41;11.10;99.90
21481;DHT22;10902;48.158;8.634;2023-08-06T07:31:27;11.00;99.90
21481;DHT22;10902;48.158;8.634;2023-08-06T07:34:13;11.10;99.90
21481;DHT22;10902;48.158;8.634;2023-08-06T07:36:58;11.20;99.90
21481;DHT22;10902;48.158;8.634;2023-08-06T07:39:44;11.20;99.90
21481;DHT22;10902;48.158;8.634;2023-08-06T07:42:32;11.20;99.90
21481;DHT22;10902;48.158;8.634;2023-08-06T07:45:23;11.10;99.90
21481;DHT22;10902;48.158;8.634;2023-08-06T07:48:23;11.00;99.90
21481;DHT22;10902;48.158;8.634;2023-08-06T07:51:09;11.00;99.90
21481;DHT22;10902;48.158;8.634;2023-08-06T07:53:54;11.00;99.90
21481;DHT22;10902;48.158;8.634;2023-08-06T07:56:40;11.10;99.90
21481;DHT22;10902;48.158;8.634;2023-08-06T07:59:26;11.10;99.90
21481;DHT22;10902;48.158;8.634;2023-08-06T08:02:11;11.20;99.90
21481;DHT22;10902;48.158;8.634;2023-08-06T08:05:01;11.30;99.90
21481;DHT22;10902;48.158;8.634;2023-08-06T08:07:47;11.40;99.90
21481;DHT22;10902;48.158;8.634;2023-08-06T08:10:35;11.30;99.90
21481;DHT22;10902;48.158;8.634;2023-08-06T08:13:46;11.20;99.90
21481;DHT22;10902;48.158;8.634;2023-08-06T08:16:32;11.30;99.90
21481;DHT22;10902;48.158;8.634;2023-08-06T08:19:18;11.30;99.90
21481;DHT22;10902;48.158;8.634;2023-08-06T08:22:03;11.40;99.90
21481;DHT22;10902;48.158;8.634;2023-08-06T08:24:49;11.40;99.90
21481;DHT22;10902;48.158;8.634;2023-08-06T08:27:35;11.60;99.90
21481;DHT22;10902;48.158;8.634;2023-08-06T08:30:23;11.60;99.90
21481;DHT22;10902;48.158;8.634;2023-08-06T08:33:10;11.60;99.90
21481;DHT22;10902;48.158;8.634;2023-08-06T08:35:55;11.70;99.90
21481;DHT22;10902;48.158;8.634;2023-08-06T08:38:41;11.70;99.90
21481;DHT22;10902;48.158;8.634;2023-08-06T08:41:33;11.80;99.90
21481;DHT22;10902;48.158;8.634;2023-08-06T08:44:19;11.90;99.90
21481;DHT22;10902;48.158;8.634;2023-08-06T08:47:06;12.00;99.90
21481;DHT22;10902;48.158;8.634;2023-08-06T08:49:54;12.30;99.90
21481;DHT22;10902;48.158;8.634;2023-08-06T08:52:43;12.40;99.90
21481;DHT22;10902;48.158;8.634;2023-08-06T08:55:31;12.70;99.90
21481;DHT22;10902;48.158;8.634;2023-08-06T08:58:17;12.50;99.90
21481;DHT22;10902;48.158;8.634;2023-08-06T09:01:03;12.70;99.90
21481;DHT22;10902;48.158;8.634;2023-08-06T09:03:50;12.90;99.90
21481;DHT22;10902;48.158;8.634;2023-08-06T09:06:38;12.90;99.90
21481;DHT22;10902;48.158;8.634;2023-08-06T09:09:31;12.70;99.90
21481;DHT22;10902;48.158;8.634;2023-08-06T09:12:17;12.70;99.90
21481;DHT22;10902;48.158;8.634;2023-08-06T09:15:03;12.70;99.90
21481;DHT22;10902;48.158;8.634;2023-08-06T09:17:48;12.80;99.90
21481;DHT22;10902;48.158;8.634;2023-08-06T09:20:34;12.90;99.90
21481;DHT22;10902;48.158;8.634;2023-08-06T09:23:20;13.20;99.90
21481;DHT22;10902;48.158;8.634;2023-08-06T09:26:07;13.40;99.90
21481;DHT22;10902;48.158;8.634;2023-08-06T09:29:08;13.40;99.90
21481;DHT22;10902;48.158;8.634;2023-08-06T09:31:54;13.70;99.90
21481;DHT22;10902;48.158;8.634;2023-08-06T09:34:42;14.00;99.90
21481;DHT22;10902;48.158;8.634;2023-08-06T09:37:35;13.90;99.90
21481;DHT22;10902;48.158;8.634;2023-08-06T09:40:25;13.10;99.90
21481;DHT22;10902;48.158;8.634;2023-08-06T09:43:11;12.80;99.90
21481;DHT22;10902;48.158;8.634;2023-08-06T09:45:58;12.50;99.90
21481;DHT22;10902;48.158;8.634;2023-08-06T09:48:48;12.50;99.90
21481;DHT22;10902;48.158;8.634;2023-08-06T09:51:38;12.50;99.90
21481;DHT22;10902;48.158;8.634;2023-08-06T09:54:35;12.50;99.90
21481;DHT22;10902;48.158;8.634;2023-08-06T09:57:28;12.50;99.90
21481;DHT22;10902;48.158;8.634;2023-08-06T10:00:48;12.40;99.90
21481;DHT22;10902;48.158;8.634;2023-08-06T10:03:36;12.40;99.90
21481;DHT22;10902;48.158;8.634;2023-08-06T10:06:25;12.40;99.90
21481;DHT22;10902;48.158;8.634;2023-08-06T10:09:14;12.60;99.90
21481;DHT22;10902;48.158;8.634;2023-08-06T10:12:20;12.70;99.90
21481;DHT22;10902;48.158;8.634;2023-08-06T10:15:46;12.70;99.90
21481;DHT22;10902;48.158;8.634;2023-08-06T10:19:01;12.90;99.90
21481;DHT22;10902;48.158;8.634;2023-08-06T10:22:16;13.20;99.90
21481;DHT22;10902;48.158;8.634;2023-08-06T10:25:07;13.50;99.90
21481;DHT22;10902;48.158;8.634;2023-08-06T10:27:54;13.40;99.90
21481;DHT22;10902;48.158;8.634;2023-08-06T10:30:47;13.30;99.90
21481;DHT22;10902;48.158;8.634;2023-08-06T10:33:46;13.40;99.90
21481;DHT22;10902;48.158;8.634;2023-08-06T10:36:38;13.10;99.90
21481;DHT22;10902;48.158;8.634;2023-08-06T10:39:25;13.10;99.90
21481;DHT22;10902;48.158;8.634;2023-08-06T10:42:38;13.10;99.90
21481;DHT22;10902;48.158;8.634;2023-08-06T10:49:32;13.20;99.90
21481;DHT22;10902;48.158;8.634;2023-08-06T10:52:20;13.50;99.90
21481;DHT22;10902;48.158;8.634;2023-08-06T10:55:07;13.40;99.90
21481;DHT22;10902;48.158;8.634;2023-08-06T10:57:58;13.30;99.90
21481;DHT22;10902;48.158;8.634;2023-08-06T11:00:45;13.20;99.90
21481;DHT22;10902;48.158;8.634;2023-08-06T11:03:35;13.10;99.90
21481;DHT22;10902;48.158;8.634;2023-08-06T11:06:51;13.00;99.90
21481;DHT22;10902;48.158;8.634;2023-08-06T11:09:44;13.00;99.90
21481;DHT22;10902;48.158;8.634;2023-08-06T11:13:01;13.20;99.90
21481;DHT22;10902;48.158;8.634;2023-08-06T11:16:33;13.00;99.90
21481;DHT22;10902;48.158;8.634;2023-08-06T11:19:23;12.70;99.90
21481;DHT22;10902;48.158;8.634;2023-08-06T11:22:15;12.60;99.90
21481;DHT22;10902;48.158;8.634;2023-08-06T11:25:45;12.50;99.90
21481;DHT22;10902;48.158;8.634;2023-08-06T11:28:59;12.50;99.90
21481;DHT22;10902;48.158;8.634;2023-08-06T11:31:46;12.30;99.90
21481;DHT22;10902;48.158;8.634;2023-08-06T11:34:33;12.20;99.90
21481;DHT22;10902;48.158;8.634;2023-08-06T11:37:24;12.20;99.90
21481;DHT22;10902;48.158;8.634;2023-08-06T11:40:10;12.30;99.90
21481;DHT22;10902;48.158;8.634;2023-08-06T11:42:58;12.30;99.90
21481;DHT22;10902;48.158;8.634;2023-08-06T11:45:54;12.40;99.90
21481;DHT22;10902;48.158;8.634;2023-08-06T11:48:59;12.70;99.90
21481;DHT22;10902;48.158;8.634;2023-08-06T11:51:45;12.80;99.90
21481;DHT22;10902;48.158;8.634;2023-08-06T11:54:31;12.80;99.90
21481;DHT22;10902;48.158;8.634;2023-08-06T11:57:20;13.00;99.90
21481;DHT22;10902;48.158;8.634;2023-08-06T12:00:08;13.60;99.90
21481;DHT22;10902;48.158;8.634;2023-08-06T12:02:54;13.90;99.90
21481;DHT22;10902;48.158;8.634;2023-08-06T12:05:41;13.60;99.90
21481;DHT22;10902;48.158;8.634;2023-08-06T12:08:27;13.00;99.90
21481;DHT22;10902;48.158;8.634;2023-08-06T12:11:13;13.00;99.90
21481;DHT22;10902;48.158;8.634;2023-08-06T12:13:59;12.90;99.90
21481;DHT22;10902;48.158;8.634;2023-08-06T12:16:48;12.50;99.90
21481;DHT22;10902;48.158;8.634;2023-08-06T12:19:37;12.20;99.90
21481;DHT22;10902;48.158;8.634;2023-08-06T12:26:17;12.90;99.90
21481;DHT22;10902;48.158;8.634;2023-08-06T12:29:44;13.30;99.90
21481;DHT22;10902;48.158;8.634;2023-08-06T12:32:30;13.20;99.90
21481;DHT22;10902;48.158;8.634;2023-08-06T12:35:50;13.10;99.90
21481;DHT22;10902;48.158;8.634;2023-08-06T12:38:56;13.60;99.90
21481;DHT22;10902;48.158;8.634;2023-08-06T12:41:42;13.50;99.90
21481;DHT22;10902;48.158;8.634;2023-08-06T12:44:29;13.90;99.90
21481;DHT22;10902;48.158;8.634;2023-08-06T12:47:16;14.60;99.90
21481;DHT22;10902;48.158;8.634;2023-08-06T12:50:02;14.50;99.90
21481;DHT22;10902;48.158;8.634;2023-08-06T12:52:47;14.20;99.90
21481;DHT22;10902;48.158;8.634;2023-08-06T12:55:33;13.60;99.90
21481;DHT22;10902;48.158;8.634;2023-08-06T12:58:19;13.50;99.90
21481;DHT22;10902;48.158;8.634;2023-08-06T13:01:04;14.40;99.90
21481;DHT22;10902;48.158;8.634;2023-08-06T13:03:50;14.20;99.90
21481;DHT22;10902;48.158;8.634;2023-08-06T13:06:36;13.40;99.90
21481;DHT22;10902;48.158;8.634;2023-08-06T13:09:22;13.90;99.90
21481;DHT22;10902;48.158;8.634;2023-08-06T13:12:08;14.60;99.90
21481;DHT22;10902;48.158;8.634;2023-08-06T13:14:53;14.70;99.90
21481;DHT22;10902;48.158;8.634;2023-08-06T13:17:42;14.70;99.90
21481;DHT22;10902;48.158;8.634;2023-08-06T13:20:30;14.90;99.90
21481;DHT22;10902;48.158;8.634;2023-08-06T13:23:17;14.40;99.90
21481;DHT22;10902;48.158;8.634;2023-08-06T13:26:06;13.10;99.90
21481;DHT22;10902;48.158;8.634;2023-08-06T13:28:51;12.60;99.90
21481;DHT22;10902;48.158;8.634;2023-08-06T13:31:37;12.10;99.90
21481;DHT22;10902;48.158;8.634;2023-08-06T13:34:23;12.00;99.90
21481;DHT22;10902;48.158;8.634;2023-08-06T13:37:08;12.20;99.90
21481;DHT22;10902;48.158;8.634;2023-08-06T13:39:54;11.90;99.90
21481;DHT22;10902;48.158;8.634;2023-08-06T13:42:40;11.80;99.90
21481;DHT22;10902;48.158;8.634;2023-08-06T13:45:26;12.00;99.90
21481;DHT22;10902;48.158;8.634;2023-08-06T13:48:11;12.00;99.90
21481;DHT22;10902;48.158;8.634;2023-08-06T13:50:57;12.00;99.90
21481;DHT22;10902;48.158;8.634;2023-08-06T13:53:43;12.20;99.90
21481;DHT22;10902;48.158;8.634;2023-08-06T13:56:29;12.30;99.90
21481;DHT22;10902;48.158;8.634;2023-08-06T14:16:27;13.40;99.90
21481;DHT22;10902;48.158;8.634;2023-08-06T14:19:12;13.60;99.90
21481;DHT22;10902;48.158;8.634;2023-08-06T14:21:58;14.00;99.90
21481;DHT22;10902;48.158;8.634;2023-08-06T14:24:44;13.70;99.90
21481;DHT22;10902;48.158;8.634;2023-08-06T14:27:29;13.20;99.90
21481;DHT22;10902;48.158;8.634;2023-08-06T14:30:15;14.00;99.90
21481;DHT22;10902;48.158;8.634;2023-08-06T14:33:01;15.30;99.90
21481;DHT22;10902;48.158;8.634;2023-08-06T14:35:47;16.70;99.90
21481;DHT22;10902;48.158;8.634;2023-08-06T14:38:33;16.50;99.90
21481;DHT22;10902;48.158;8.634;2023-08-06T14:41:18;16.20;99.90
21481;DHT22;10902;48.158;8.634;2023-08-06T14:44:04;16.10;99.90
21481;DHT22;10902;48.158;8.634;2023-08-06T14:46:49;14.80;99.90
21481;DHT22;10902;48.158;8.634;2023-08-06T14:49:35;14.60;99.90
21481;DHT22;10902;48.158;8.634;2023-08-06T14:52:20;14.60;99.90
21481;DHT22;10902;48.158;8.634;2023-08-06T14:55:06;15.60;99.90
21481;DHT22;10902;48.158;8.634;2023-08-06T14:57:52;16.40;99.90
21481;DHT22;10902;48.158;8.634;2023-08-06T15:00:38;15.70;99.90
21481;DHT22;10902;48.158;8.634;2023-08-06T15:03:24;14.70;99.90
21481;DHT22;10902;48.158;8.634;2023-08-06T15:06:10;14.10;99.90
21481;DHT22;10902;48.158;8.634;2023-08-06T15:08:56;14.70;99.90
21481;DHT22;10902;48.158;8.634;2023-08-06T15:11:43;14.70;99.90
21481;DHT22;10902;48.158;8.634;2023-08-06T15:14:29;14.50;99.90
21481;DHT22;10902;48.158;8.634;2023-08-06T15:17:14;15.20;99.90
21481;DHT22;10902;48.158;8.634;2023-08-06T15:20:00;14.50;99.90
21481;DHT22;10902;48.158;8.634;2023-08-06T15:22:46;15.00;99.90
21481;DHT22;10902;48.158;8.634;2023-08-06T15:25:31;14.20;99.90
21481;DHT22;10902;48.158;8.634;2023-08-06T15:28:17;14.40;99.90
21481;DHT22;10902;48.158;8.634;2023-08-06T15:31:02;15.20;99.90
21481;DHT22;10902;48.158;8.634;2023-08-06T15:33:51;16.00;99.90
21481;DHT22;10902;48.158;8.634;2023-08-06T15:36:36;16.80;99.90
21481;DHT22;10902;48.158;8.634;2023-08-06T15:39:22;17.40;99.90
21481;DHT22;10902;48.158;8.634;2023-08-06T15:42:08;17.30;99.90
21481;DHT22;10902;48.158;8.634;2023-08-06T15:44:53;16.20;99.90
21481;DHT22;10902;48.158;8.634;2023-08-06T15:47:39;15.10;99.90
21481;DHT22;10902;48.158;8.634;2023-08-06T15:50:26;15.20;99.90
21481;DHT22;10902;48.158;8.634;2023-08-06T15:53:11;15.00;99.90
21481;DHT22;10902;48.158;8.634;2023-08-06T15:55:57;15.40;99.90
21481;DHT22;10902;48.158;8.634;2023-08-06T15:58:43;14.50;99.90
21481;DHT22;10902;48.158;8.634;2023-08-06T16:01:28;14.00;99.90
21481;DHT22;10902;48.158;8.634;2023-08-06T16:04:14;13.70;99.90
21481;DHT22;10902;48.158;8.634;2023-08-06T16:06:59;14.20;99.90
21481;DHT22;10902;48.158;8.634;2023-08-06T16:09:45;15.80;99.90
21481;DHT22;10902;48.158;8.634;2023-08-06T16:12:31;16.50;99.90
21481;DHT22;10902;48.158;8.634;2023-08-06T16:15:16;15.50;99.90
21481;DHT22;10902;48.158;8.634;2023-08-06T16:18:04;14.30;99.90
21481;DHT22;10902;48.158;8.634;2023-08-06T16:20:51;13.60;99.90
21481;DHT22;10902;48.158;8.634;2023-08-06T16:23:38;13.30;99.90
21481;DHT22;10902;48.158;8.634;2023-08-06T16:26:23;13.00;99.90
21481;DHT22;10902;48.158;8.634;2023-08-06T16:29:09;13.00;99.90
21481;DHT22;10902;48.158;8.634;2023-08-06T16:31:54;12.90;99.90
21481;DHT22;10902;48.158;8.634;2023-08-06T16:34:42;12.50;99.90
21481;DHT22;10902;48.158;8.634;2023-08-06T16:37:28;12.60;99.90
21481;DHT22;10902;48.158;8.634;2023-08-06T16:40:13;12.70;99.90
21481;DHT22;10902;48.158;8.634;2023-08-06T16:42:59;12.50;99.90
21481;DHT22;10902;48.158;8.634;2023-08-06T16:45:45;12.30;99.90
21481;DHT22;10902;48.158;8.634;2023-08-06T16:48:31;12.00;99.90
21481;DHT22;10902;48.158;8.634;2023-08-06T16:51:20;11.70;99.90
21481;DHT22;10902;48.158;8.634;2023-08-06T16:54:06;11.30;99.90
21481;DHT22;10902;48.158;8.634;2023-08-06T16:57:06;11.10;99.90
21481;DHT22;10902;48.158;8.634;2023-08-06T16:59:53;10.90;99.90
21481;DHT22;10902;48.158;8.634;2023-08-06T17:02:39;10.70;99.90
21481;DHT22;10902;48.158;8.634;2023-08-06T17:05:25;10.60;99.90
21481;DHT22;10902;48.158;8.634;2023-08-06T17:08:11;10.60;99.90
21481;DHT22;10902;48.158;8.634;2023-08-06T17:10:57;10.60;99.90
21481;DHT22;10902;48.158;8.634;2023-08-06T17:13:42;10.70;99.90
21481;DHT22;10902;48.158;8.634;2023-08-06T17:16:28;11.10;99.90
21481;DHT22;10902;48.158;8.634;2023-08-06T17:20:31;11.10;99.90
21481;DHT22;10902;48.158;8.634;2023-08-06T17:23:02;11.20;99.90
21481;DHT22;10902;48.158;8.634;2023-08-06T17:25:50;11.50;99.90
21481;DHT22;10902;48.158;8.634;2023-08-06T17:28:35;13.10;99.90
21481;DHT22;10902;48.158;8.634;2023-08-06T17:31:21;13.50;99.90
21481;DHT22;10902;48.158;8.634;2023-08-06T17:34:06;13.40;99.90
21481;DHT22;10902;48.158;8.634;2023-08-06T17:36:52;12.70;99.90
21481;DHT22;10902;48.158;8.634;2023-08-06T17:39:38;11.90;99.90
21481;DHT22;10902;48.158;8.634;2023-08-06T17:42:23;11.50;99.90
21481;DHT22;10902;48.158;8.634;2023-08-06T17:45:09;11.30;99.90
21481;DHT22;10902;48.158;8.634;2023-08-06T17:47:55;11.40;99.90
21481;DHT22;10902;48.158;8.634;2023-08-06T17:50:40;11.30;99.90
21481;DHT22;10902;48.158;8.634;2023-08-06T17:53:26;11.80;99.90
21481;DHT22;10902;48.158;8.634;2023-08-06T17:56:12;11.60;99.90
21481;DHT22;10902;48.158;8.634;2023-08-06T17:58:57;11.40;99.90
21481;DHT22;10902;48.158;8.634;2023-08-06T18:01:43;11.30;99.90
21481;DHT22;10902;48.158;8.634;2023-08-06T18:04:28;11.30;99.90
21481;DHT22;10902;48.158;8.634;2023-08-06T18:07:14;11.30;99.90
21481;DHT22;10902;48.158;8.634;2023-08-06T18:10:00;11.30;99.90
21481;DHT22;10902;48.158;8.634;2023-08-06T18:12:45;11.30;99.90
21481;DHT22;10902;48.158;8.634;2023-08-06T18:15:31;11.20;99.90
21481;DHT22;10902;48.158;8.634;2023-08-06T18:18:17;11.20;99.90
21481;DHT22;10902;48.158;8.634;2023-08-06T18:21:03;11.10;99.90
21481;DHT22;10902;48.158;8.634;2023-08-06T18:23:49;11.00;99.90
21481;DHT22;10902;48.158;8.634;2023-08-06T18:26:34;11.00;99.90
21481;DHT22;10902;48.158;8.634;2023-08-06T18:29:20;11.00;99.90
21481;DHT22;10902;48.158;8.634;2023-08-06T18:32:06;11.00;99.90
21481;DHT22;10902;48.158;8.634;2023-08-06T18:34:51;11.00;99.90
21481;DHT22;10902;48.158;8.634;2023-08-06T18:37:37;11.10;99.90
21481;DHT22;10902;48.158;8.634;2023-08-06T18:40:27;11.20;99.90
21481;DHT22;10902;48.158;8.634;2023-08-06T18:43:13;11.20;99.90
21481;DHT22;10902;48.158;8.634;2023-08-06T18:45:58;11.10;99.90
21481;DHT22;10902;48.158;8.634;2023-08-06T18:48:44;11.10;99.90
21481;DHT22;10902;48.158;8.634;2023-08-06T18:51:30;11.10;99.90
21481;DHT22;10902;48.158;8.634;2023-08-06T18:54:15;11.10;99.90
21481;DHT22;10902;48.158;8.634;2023-08-06T18:57:03;11.00;99.90
21481;DHT22;10902;48.158;8.634;2023-08-06T18:59:48;11.00;99.90
21481;DHT22;10902;48.158;8.634;2023-08-06T19:02:34;10.90;99.90
21481;DHT22;10902;48.158;8.634;2023-08-06T19:05:19;10.90;99.90
21481;DHT22;10902;48.158;8.634;2023-08-06T19:08:06;10.80;99.90
21481;DHT22;10902;48.158;8.634;2023-08-06T19:10:52;10.90;99.90
21481;DHT22;10902;48.158;8.634;2023-08-06T19:13:38;10.80;99.90
21481;DHT22;10902;48.158;8.634;2023-08-06T19:16:23;10.70;99.90
21481;DHT22;10902;48.158;8.634;2023-08-06T19:19:09;10.70;99.90
21481;DHT22;10902;48.158;8.634;2023-08-06T19:21:55;10.60;99.90
21481;DHT22;10902;48.158;8.634;2023-08-06T19:24:40;10.60;99.90
21481;DHT22;10902;48.158;8.634;2023-08-06T19:27:26;10.60;99.90
21481;DHT22;10902;48.158;8.634;2023-08-06T19:30:12;10.60;99.90
21481;DHT22;10902;48.158;8.634;2023-08-06T19:32:57;10.60;99.90
21481;DHT22;10902;48.158;8.634;2023-08-06T19:35:52;10.60;99.90